Time;durP1;ratioP1;P1;durP2;ratioP2;P2;SDS_P1;SDS_P2;PMS_P1;PMS_P2;Temp;Humidity;BMP_temperature;BMP_pressure;BME280_temperature;BME280_humidity;BME280_pressure;Samples;Min_cycle;Max_cycle;Signal;HPM_P1;HPM_P2
2021/06/07 04:01:08;;;;;;;37.20;30.40;;;16.00;99.90;;;;;;5585203;23;20500;-70
2021/06/07 04:03:34;;;;;;;36.47;29.53;;;15.90;99.90;;;;;;4939387;29;20474;-70
2021/06/07 04:06:01;;;;;;;32.63;28.40;;;15.90;99.90;;;;;;4939106;28;20528;-70
2021/06/07 04:08:27;;;;;;;33.53;28.33;;;15.90;99.90;;;;;;4938413;29;20793;-69
2021/06/07 04:10:53;;;;;;;34.53;28.70;;;15.90;99.90;;;;;;4938194;29;20496;-68
2021/06/07 04:13:19;;;;;;;40.20;29.47;;;15.90;99.90;;;;;;4938539;29;20468;-68
2021/06/07 04:15:46;;;;;;;35.53;30.20;;;15.90;99.90;;;;;;4938467;29;20476;-70
2021/06/07 04:18:13;;;;;;;36.30;30.80;;;15.90;99.90;;;;;;4938414;29;21005;-69
2021/06/07 04:20:40;;;;;;;36.17;28.90;;;15.80;99.90;;;;;;4938197;29;20496;-69
2021/06/07 04:23:07;;;;;;;36.87;30.53;;;15.90;99.90;;;;;;4937677;29;20473;-69
2021/06/07 04:25:33;;;;;;;37.33;29.67;;;15.80;99.90;;;;;;4938629;29;20474;-69
2021/06/07 04:28:00;;;;;;;39.80;31.70;;;15.90;99.90;;;;;;4938006;29;20521;-69
2021/06/07 04:30:29;;;;;;;34.07;29.13;;;15.80;99.90;;;;;;4938274;29;20492;-69
2021/06/07 04:32:56;;;;;;;38.50;29.97;;;15.90;99.90;;;;;;4937927;29;20480;-69
2021/06/07 04:35:25;;;;;;;43.20;31.70;;;15.80;99.90;;;;;;4938391;29;21013;-68
2021/06/07 04:37:53;;;;;;;41.57;32.90;;;15.80;99.90;;;;;;4937493;29;20844;-69
2021/06/07 04:40:21;;;;;;;43.03;31.80;;;15.80;99.90;;;;;;4937680;29;20918;-69
2021/06/07 04:42:48;;;;;;;44.93;34.33;;;15.80;99.90;;;;;;4937640;29;20907;-70
2021/06/07 04:45:15;;;;;;;43.50;33.03;;;15.80;99.90;;;;;;4938100;29;20466;-69
2021/06/07 04:47:41;;;;;;;42.90;33.77;;;15.80;99.90;;;;;;4937330;29;20541;-69
2021/06/07 04:50:11;;;;;;;47.80;33.13;;;15.80;99.90;;;;;;4937782;29;20469;-69
2021/06/07 04:52:56;;;;;;;44.40;33.30;;;15.80;99.90;;;;;;4937192;29;20469;-69
2021/06/07 04:55:25;;;;;;;43.90;30.80;;;15.70;99.90;;;;;;4937738;29;20469;-69
2021/06/07 04:57:51;;;;;;;45.30;32.73;;;15.70;99.90;;;;;;4937701;29;20493;-70
2021/06/07 05:00:20;;;;;;;48.57;33.33;;;15.70;99.90;;;;;;4936798;29;20501;-70
2021/06/07 05:02:48;;;;;;;49.10;32.67;;;15.70;99.90;;;;;;4936746;29;20516;-70
2021/06/07 05:05:14;;;;;;;47.90;33.80;;;15.70;99.90;;;;;;4937148;29;20465;-70
2021/06/07 05:07:42;;;;;;;46.80;34.23;;;15.70;99.90;;;;;;4936348;29;20501;-70
2021/06/07 05:10:09;;;;;;;50.77;35.03;;;15.70;99.90;;;;;;4937195;29;20492;-70
2021/06/07 05:12:35;;;;;;;42.47;32.10;;;15.70;99.90;;;;;;4936271;29;20625;-70
2021/06/07 05:15:02;;;;;;;48.80;35.23;;;15.70;99.90;;;;;;4937085;29;20573;-70
2021/06/07 05:17:28;;;;;;;49.07;33.67;;;15.80;99.90;;;;;;4936867;29;20552;-70
2021/06/07 05:19:54;;;;;;;46.17;34.30;;;15.80;99.90;;;;;;4937616;29;20505;-70
2021/06/07 05:22:20;;;;;;;51.83;36.30;;;15.80;99.90;;;;;;4936762;29;20504;-70
2021/06/07 05:24:48;;;;;;;45.33;34.03;;;15.80;99.90;;;;;;4937391;29;20528;-70
2021/06/07 05:27:14;;;;;;;50.97;35.13;;;15.80;99.90;;;;;;4936641;29;20533;-70
2021/06/07 05:29:41;;;;;;;46.00;33.93;;;15.90;99.90;;;;;;4937697;29;20469;-71
2021/06/07 05:32:07;;;;;;;49.50;35.87;;;15.90;99.90;;;;;;4936861;29;20485;-69
2021/06/07 05:34:34;;;;;;;48.70;35.00;;;15.90;99.90;;;;;;4938698;29;20577;-70
2021/06/07 05:37:00;;;;;;;47.30;33.50;;;15.90;99.90;;;;;;4939692;29;20477;-70
2021/06/07 05:39:26;;;;;;;43.00;32.80;;;15.90;99.90;;;;;;4940014;29;20513;-70
2021/06/07 05:41:54;;;;;;;46.73;32.80;;;15.90;99.90;;;;;;4945296;29;20493;-70
2021/06/07 05:44:20;;;;;;;48.30;33.93;;;15.90;99.90;;;;;;4948898;29;20476;-70
2021/06/07 05:46:47;;;;;;;45.63;33.50;;;15.80;99.90;;;;;;4950192;29;20470;-70
2021/06/07 05:49:14;;;;;;;47.17;34.03;;;15.90;99.90;;;;;;4946202;29;20953;-70
2021/06/07 05:51:40;;;;;;;44.73;33.07;;;16.00;99.90;;;;;;4946369;29;20493;-70
2021/06/07 05:54:07;;;;;;;41.83;30.23;;;16.10;99.90;;;;;;4943035;29;20560;-70
2021/06/07 05:56:33;;;;;;;42.10;30.33;;;16.10;99.90;;;;;;4942343;29;20501;-70
2021/06/07 05:59:00;;;;;;;38.40;29.03;;;16.20;99.90;;;;;;4940413;29;20489;-70
2021/06/07 06:01:29;;;;;;;43.57;32.40;;;16.20;99.90;;;;;;4937141;29;20497;-70
2021/06/07 06:03:55;;;;;;;41.80;29.00;;;16.30;99.90;;;;;;4936257;29;20917;-70
2021/06/07 06:06:21;;;;;;;39.77;30.53;;;16.50;99.90;;;;;;4936430;28;20478;-70
2021/06/07 06:08:49;;;;;;;39.27;30.63;;;16.50;99.90;;;;;;4936014;29;20462;-70
2021/06/07 06:11:15;;;;;;;40.30;30.13;;;16.60;99.90;;;;;;4935704;29;20667;-70
2021/06/07 06:13:41;;;;;;;41.87;31.37;;;16.70;99.90;;;;;;4935986;29;20465;-70
2021/06/07 06:16:09;;;;;;;38.40;30.40;;;16.80;99.90;;;;;;4936621;29;20468;-71
2021/06/07 06:18:37;;;;;;;40.07;29.57;;;16.80;99.90;;;;;;4935651;29;20565;-71
2021/06/07 06:21:04;;;;;;;38.03;29.50;;;16.80;99.90;;;;;;4935894;29;20485;-70
2021/06/07 06:23:30;;;;;;;40.30;29.07;;;16.90;99.90;;;;;;4935196;29;20567;-70
2021/06/07 06:25:56;;;;;;;37.80;28.10;;;16.90;99.90;;;;;;4935294;29;20474;-70
2021/06/07 06:28:23;;;;;;;33.63;26.73;;;16.90;99.90;;;;;;4935767;29;20466;-70
2021/06/07 06:30:49;;;;;;;35.70;27.93;;;17.00;99.90;;;;;;4935239;29;21118;-70
2021/06/07 06:33:17;;;;;;;33.97;27.63;;;17.10;99.90;;;;;;4935291;29;20957;-70
2021/06/07 06:35:43;;;;;;;33.73;26.33;;;17.10;99.90;;;;;;4935762;29;20461;-70
2021/06/07 06:38:10;;;;;;;29.80;24.53;;;17.10;99.90;;;;;;4935213;29;20496;-70
2021/06/07 06:40:38;;;;;;;31.77;24.10;;;17.20;99.90;;;;;;4934880;29;20492;-70
2021/06/07 06:43:06;;;;;;;32.70;26.33;;;17.30;99.90;;;;;;4935554;29;20934;-70
2021/06/07 06:45:33;;;;;;;29.70;24.50;;;17.30;99.90;;;;;;4935740;29;20474;-70
2021/06/07 06:48:00;;;;;;;29.33;25.27;;;17.40;99.90;;;;;;4935573;29;20578;-70
2021/06/07 06:50:33;;;;;;;30.50;25.67;;;17.40;99.90;;;;;;4935420;29;20490;-70
2021/06/07 06:52:59;;;;;;;33.70;27.23;;;17.40;99.90;;;;;;4934782;29;20465;-70
2021/06/07 06:55:25;;;;;;;28.63;24.27;;;17.40;99.90;;;;;;4935299;29;20469;-70
2021/06/07 06:57:52;;;;;;;30.00;25.80;;;17.50;99.90;;;;;;4935422;29;21006;-70
2021/06/07 07:00:19;;;;;;;30.83;23.57;;;17.60;99.90;;;;;;4935606;29;20469;-70
2021/06/07 07:02:45;;;;;;;24.63;21.33;;;17.60;99.90;;;;;;4935111;29;20470;-69
2021/06/07 07:05:12;;;;;;;25.80;23.00;;;17.70;99.90;;;;;;4935312;29;20469;-70
2021/06/07 07:07:40;;;;;;;25.83;23.10;;;17.70;99.90;;;;;;4934571;28;20484;-69
2021/06/07 07:10:08;;;;;;;28.77;23.83;;;17.70;99.90;;;;;;4935140;29;20472;-70
2021/06/07 07:12:34;;;;;;;28.23;24.00;;;17.80;99.90;;;;;;4934205;29;20493;-69
2021/06/07 07:15:01;;;;;;;25.90;23.13;;;17.80;99.90;;;;;;4935213;29;20466;-69
2021/06/07 07:17:28;;;;;;;27.10;22.70;;;17.90;99.90;;;;;;4934674;29;20478;-69
2021/06/07 07:19:55;;;;;;;24.97;22.37;;;17.90;99.90;;;;;;4935049;29;20469;-69
2021/06/07 07:22:21;;;;;;;25.63;22.93;;;18.00;99.90;;;;;;4933777;29;20512;-69
2021/06/07 07:24:49;;;;;;;26.93;23.07;;;18.00;99.90;;;;;;4935400;29;20465;-69
2021/06/07 07:27:18;;;;;;;24.97;22.23;;;18.10;99.90;;;;;;4934434;29;20461;-69
2021/06/07 07:29:45;;;;;;;25.57;22.57;;;18.20;99.90;;;;;;4934864;29;20465;-69
2021/06/07 07:32:12;;;;;;;25.20;22.57;;;18.30;99.90;;;;;;4934492;29;20489;-70
2021/06/07 07:34:40;;;;;;;22.80;20.40;;;18.40;99.90;;;;;;4934770;29;20473;-69
2021/06/07 07:37:07;;;;;;;23.07;20.67;;;18.60;99.90;;;;;;4935101;29;20522;-70
2021/06/07 07:39:33;;;;;;;23.47;20.13;;;18.70;99.90;;;;;;4934369;29;20553;-69
2021/06/07 07:42:00;;;;;;;22.77;20.17;;;18.90;99.90;;;;;;4933907;29;20493;-70
2021/06/07 07:44:27;;;;;;;21.63;19.50;;;19.20;99.90;;;;;;4934826;29;20818;-71
2021/06/07 07:46:53;;;;;;;22.87;20.43;;;19.50;99.90;;;;;;4934927;29;20488;-70
2021/06/07 07:49:20;;;;;;;24.93;20.63;;;19.60;99.90;;;;;;4934817;29;20461;-70
2021/06/07 07:51:47;;;;;;;22.03;19.83;;;19.70;99.90;;;;;;4934759;29;20494;-69
2021/06/07 07:54:14;;;;;;;18.83;17.03;;;19.90;99.90;;;;;;4934510;29;20873;-69
2021/06/07 07:56:40;;;;;;;20.20;18.30;;;19.90;99.90;;;;;;4934628;29;20492;-71
2021/06/07 07:59:08;;;;;;;20.67;18.60;;;20.00;99.90;;;;;;4934935;29;20494;-70
2021/06/07 08:01:34;;;;;;;20.57;18.57;;;20.10;99.90;;;;;;4934701;29;20496;-69
2021/06/07 08:04:00;;;;;;;17.90;16.30;;;20.20;99.90;;;;;;4934708;29;21025;-69
2021/06/07 08:06:27;;;;;;;18.87;17.07;;;20.30;99.90;;;;;;4934537;29;20541;-70
2021/06/07 08:08:53;;;;;;;18.93;17.30;;;20.50;99.90;;;;;;4934282;29;20468;-70
2021/06/07 08:11:20;;;;;;;20.50;18.60;;;20.50;99.90;;;;;;4934453;29;20486;-70
2021/06/07 08:13:46;;;;;;;18.00;16.40;;;20.60;99.90;;;;;;4934679;29;20469;-70
2021/06/07 08:16:14;;;;;;;18.60;17.00;;;20.80;99.90;;;;;;4935003;29;20466;-70
2021/06/07 08:18:40;;;;;;;17.30;15.80;;;21.00;99.90;;;;;;4934831;29;20897;-70
2021/06/07 08:21:07;;;;;;;19.20;17.43;;;21.30;99.90;;;;;;4934535;29;20497;-70
2021/06/07 08:23:33;;;;;;;18.17;16.33;;;21.70;99.90;;;;;;4934366;29;20465;-70
2021/06/07 08:26:00;;;;;;;17.07;15.50;;;22.00;99.90;;;;;;4934173;29;20473;-69
2021/06/07 08:28:26;;;;;;;17.80;16.23;;;22.50;99.90;;;;;;4934328;29;20473;-69
2021/06/07 08:30:53;;;;;;;15.93;14.63;;;22.80;99.90;;;;;;4934526;29;20486;-69
2021/06/07 08:33:20;;;;;;;15.20;14.00;;;22.90;99.90;;;;;;4933904;29;20880;-69
2021/06/07 08:35:46;;;;;;;14.87;13.87;;;23.20;99.90;;;;;;4937536;29;20467;-69
2021/06/07 08:38:13;;;;;;;15.70;14.60;;;23.40;99.90;;;;;;4937602;29;20543;-69
2021/06/07 08:40:39;;;;;;;14.80;13.53;;;23.70;99.90;;;;;;4937404;29;21285;-69
2021/06/07 08:43:06;;;;;;;14.57;13.47;;;24.00;99.90;;;;;;4937422;29;20469;-70
2021/06/07 08:45:34;;;;;;;14.60;13.60;;;23.60;99.90;;;;;;4937732;29;20473;-69
2021/06/07 08:48:00;;;;;;;15.07;14.00;;;23.40;99.90;;;;;;4937457;29;20572;-69
2021/06/07 08:50:30;;;;;;;15.63;14.43;;;23.20;99.90;;;;;;4938128;29;20498;-68
2021/06/07 08:52:57;;;;;;;14.50;13.43;;;23.10;99.90;;;;;;4937667;29;20535;-68
2021/06/07 08:55:26;;;;;;;15.00;13.90;;;23.20;99.90;;;;;;4940218;29;20465;-69
2021/06/07 08:57:54;;;;;;;14.50;13.30;;;23.10;99.90;;;;;;4941471;29;20852;-69
2021/06/07 09:00:23;;;;;;;13.87;12.83;;;23.10;99.90;;;;;;4939225;29;20473;-69
2021/06/07 09:02:50;;;;;;;15.90;14.70;;;23.20;99.90;;;;;;4938677;29;20473;-69
2021/06/07 09:05:17;;;;;;;15.53;14.43;;;23.40;99.90;;;;;;4943654;29;20466;-69
2021/06/07 09:08:01;;;;;;;17.17;15.73;;;23.40;99.90;;;;;;4950460;28;20579;-69
2021/06/07 09:10:29;;;;;;;14.87;13.60;;;23.70;99.90;;;;;;4946017;29;20497;-69
2021/06/07 09:12:57;;;;;;;14.43;13.37;;;24.10;99.90;;;;;;4940769;29;20465;-69
2021/06/07 09:15:26;;;;;;;13.50;12.60;;;24.50;99.90;;;;;;4938528;29;20476;-69
2021/06/07 09:17:52;;;;;;;15.70;14.60;;;24.40;99.90;;;;;;4937473;29;20499;-69
2021/06/07 09:20:21;;;;;;;16.03;14.73;;;24.30;99.90;;;;;;4937411;29;20476;-69
2021/06/07 09:22:49;;;;;;;15.20;13.93;;;24.20;99.90;;;;;;4936564;29;20574;-69
2021/06/07 09:25:18;;;;;;;15.10;14.00;;;24.30;99.90;;;;;;4937193;29;20472;-69
2021/06/07 09:28:02;;;;;;;16.10;14.80;;;24.60;99.90;;;;;;4936829;29;20513;-69
2021/06/07 09:30:30;;;;;;;13.87;12.87;;;24.60;99.90;;;;;;4937010;29;20504;-69
2021/06/07 09:33:26;;;;;;;14.00;12.97;;;24.50;99.90;;;;;;4936827;29;20766;-69
2021/06/07 09:36:11;;;;;;;14.50;13.40;;;24.60;99.90;;;;;;4936651;29;20473;-69
2021/06/07 09:38:53;;;;;;;15.90;14.53;;;24.80;99.90;;;;;;4936854;29;20493;-68
2021/06/07 09:41:20;;;;;;;16.43;15.17;;;24.90;99.90;;;;;;4936426;29;20488;-68
2021/06/07 09:43:48;;;;;;;16.17;14.97;;;24.90;99.90;;;;;;4936606;29;20469;-69
2021/06/07 09:46:15;;;;;;;18.93;17.43;;;24.90;99.90;;;;;;4936447;29;20466;-69
2021/06/07 09:48:41;;;;;;;14.93;13.80;;;24.60;99.90;;;;;;4936721;29;20512;-68
2021/06/07 09:51:07;;;;;;;16.27;15.07;;;24.30;99.90;;;;;;4936830;29;20928;-69
2021/06/07 09:53:44;;;;;;;15.17;13.87;;;24.00;99.90;;;;;;4936097;29;20497;-68
2021/06/07 09:56:10;;;;;;;16.87;15.43;;;24.00;99.90;;;;;;4936273;29;21012;-69
2021/06/07 09:58:40;;;;;;;17.73;16.10;;;24.00;99.90;;;;;;4936451;29;20493;-69
2021/06/07 10:01:13;;;;;;;18.17;16.67;;;23.90;99.90;;;;;;4936344;29;20489;-69
2021/06/07 10:03:42;;;;;;;15.53;14.13;;;23.90;99.90;;;;;;4936303;29;20466;-69
2021/06/07 10:06:20;;;;;;;14.50;13.30;;;23.90;99.90;;;;;;4936261;28;20481;-69
2021/06/07 10:08:47;;;;;;;15.03;13.90;;;23.90;99.90;;;;;;4935927;29;20819;-69
2021/06/07 10:11:18;;;;;;;12.90;11.83;;;24.20;99.90;;;;;;4935751;29;20521;-69
2021/06/07 10:13:46;;;;;;;12.40;11.40;;;24.10;99.90;;;;;;4935972;29;20529;-69
2021/06/07 10:16:13;;;;;;;13.57;12.40;;;24.20;99.90;;;;;;4936578;29;20470;-69
2021/06/07 10:18:40;;;;;;;14.30;13.30;;;24.10;99.90;;;;;;4935930;29;21002;-69
2021/06/07 10:21:07;;;;;;;15.20;14.00;;;24.00;99.90;;;;;;4936530;29;20489;-69
2021/06/07 10:23:34;;;;;;;14.33;13.23;;;24.10;99.90;;;;;;4935568;29;20501;-69
2021/06/07 10:26:03;;;;;;;14.60;13.40;;;24.10;99.90;;;;;;4935732;29;20476;-70
2021/06/07 10:28:31;;;;;;;14.70;13.50;;;24.20;99.90;;;;;;4936508;29;20837;-70
2021/06/07 10:31:09;;;;;;;13.40;12.20;;;24.20;99.90;;;;;;4936213;29;20545;-69
2021/06/07 10:33:37;;;;;;;13.90;12.70;;;24.30;99.90;;;;;;4935758;29;20524;-69
2021/06/07 10:36:35;;;;;;;13.77;12.67;;;24.50;99.90;;;;;;4935871;29;20473;-69
2021/06/07 10:39:29;;;;;;;13.43;12.43;;;24.30;99.90;;;;;;4913322;29;20496;-70
2021/06/07 10:42:24;;;;;;;13.73;12.40;;;24.20;99.90;;;;;;4935366;29;20494;-70
2021/06/07 10:44:54;;;;;;;13.23;12.00;;;24.10;99.90;;;;;;4934960;29;20465;-70
2021/06/07 10:47:24;;;;;;;13.60;12.60;;;24.00;99.90;;;;;;4935404;29;20958;-69
2021/06/07 10:49:56;;;;;;;13.27;12.27;;;24.00;99.90;;;;;;4935668;29;20465;-69
2021/06/07 10:52:24;;;;;;;13.40;12.50;;;24.10;99.90;;;;;;4935009;29;20493;-68
2021/06/07 10:54:57;;;;;;;13.00;12.13;;;24.20;99.90;;;;;;4935483;29;20545;-69
2021/06/07 10:57:36;;;;;;;13.57;12.53;;;24.10;99.90;;;;;;4934554;29;20457;-70
2021/06/07 11:00:11;;;;;;;12.97;12.07;;;24.00;99.90;;;;;;4935607;29;20485;-70
2021/06/07 11:02:41;;;;;;;12.73;11.83;;;23.80;99.90;;;;;;4935073;29;20477;-70
2021/06/07 11:05:11;;;;;;;14.17;13.17;;;23.70;99.90;;;;;;4935473;29;20520;-69
2021/06/07 11:07:38;;;;;;;12.43;11.53;;;23.60;99.90;;;;;;4934617;28;21076;-69
2021/06/07 11:10:27;;;;;;;11.70;10.90;;;23.80;99.90;;;;;;4935730;29;20466;-69
2021/06/07 11:12:55;;;;;;;11.93;11.00;;;23.90;99.90;;;;;;4932404;29;20560;-69
2021/06/07 11:15:24;;;;;;;12.60;11.60;;;23.90;99.90;;;;;;4935373;29;20524;-69
2021/06/07 11:17:52;;;;;;;12.10;11.20;;;23.90;99.90;;;;;;4935320;29;20525;-69
2021/06/07 11:20:43;;;;;;;12.20;11.30;;;23.90;99.90;;;;;;4935313;29;20473;-70
2021/06/07 11:23:11;;;;;;;12.23;11.33;;;24.10;99.90;;;;;;4924637;29;20466;-69
2021/06/07 11:25:44;;;;;;;12.43;11.63;;;24.10;99.90;;;;;;4934865;29;20613;-69
2021/06/07 11:28:40;;;;;;;11.77;11.07;;;24.10;99.90;;;;;;4935195;29;20496;-70
2021/06/07 11:31:51;;;;;;;12.07;11.13;;;24.10;99.90;;;;;;4935188;29;20517;-70
2021/06/07 11:34:45;;;;;;;12.20;11.47;;;24.20;99.90;;;;;;4935141;29;20462;-70
2021/06/07 11:37:13;;;;;;;10.70;10.10;;;24.40;99.90;;;;;;4934824;29;20465;-69
2021/06/07 11:39:53;;;;;;;11.23;10.43;;;24.60;99.90;;;;;;4935084;29;20492;-70
2021/06/07 11:42:22;;;;;;;11.63;10.93;;;24.90;99.90;;;;;;4934760;29;20477;-69
2021/06/07 11:44:56;;;;;;;11.10;10.30;;;25.00;99.90;;;;;;4935012;29;20805;-69
2021/06/07 11:47:25;;;;;;;11.40;10.70;;;25.00;99.90;;;;;;4934969;29;20466;-69
2021/06/07 11:50:12;;;;;;;10.80;10.20;;;24.90;99.90;;;;;;4935399;29;20457;-71
2021/06/07 11:52:53;;;;;;;9.83;9.23;;;24.70;99.90;;;;;;4934846;29;20839;-68
2021/06/07 11:55:28;;;;;;;11.47;10.77;;;24.70;99.90;;;;;;4934971;29;20504;-70
2021/06/07 11:58:07;;;;;;;11.50;10.70;;;24.70;99.90;;;;;;4934838;29;20950;-71
2021/06/07 12:00:35;;;;;;;12.73;11.83;;;24.70;99.90;;;;;;4935266;29;20478;-68
2021/06/07 12:03:05;;;;;;;13.60;12.63;;;24.70;99.90;;;;;;4935130;29;20465;-69
2021/06/07 12:05:33;;;;;;;12.03;11.27;;;24.60;99.90;;;;;;4935225;29;20926;-70
2021/06/07 12:08:05;;;;;;;12.93;12.03;;;24.60;99.90;;;;;;4934867;29;21542;-70
2021/06/07 12:10:32;;;;;;;11.40;10.53;;;24.60;99.90;;;;;;4938041;29;20978;-70
2021/06/07 12:13:15;;;;;;;12.07;11.27;;;24.70;99.90;;;;;;4938183;29;20476;-70
2021/06/07 12:15:42;;;;;;;11.40;10.70;;;24.70;99.90;;;;;;4938240;29;20548;-68
2021/06/07 12:18:08;;;;;;;11.57;10.77;;;24.90;99.90;;;;;;4938073;29;20976;-69
2021/06/07 12:20:36;;;;;;;12.07;11.27;;;25.00;99.90;;;;;;4938139;29;20493;-69
2021/06/07 12:23:03;;;;;;;11.97;11.17;;;24.90;99.90;;;;;;4937748;29;20469;-69
2021/06/07 12:25:43;;;;;;;12.13;11.33;;;24.80;99.90;;;;;;4938248;29;20515;-70
2021/06/07 12:28:19;;;;;;;10.90;10.20;;;24.80;99.90;;;;;;4938339;29;20469;-70
2021/06/07 12:30:47;;;;;;;10.90;10.20;;;24.70;99.90;;;;;;4937776;29;20489;-70
2021/06/07 12:33:14;;;;;;;11.77;11.07;;;24.60;99.90;;;;;;4938159;29;20469;-70
2021/06/07 12:35:42;;;;;;;10.27;9.63;;;24.50;99.90;;;;;;4938202;29;20465;-70
2021/06/07 12:38:09;;;;;;;12.20;11.30;;;24.60;99.90;;;;;;4937516;29;20477;-70
2021/06/07 12:40:39;;;;;;;13.17;12.07;;;24.60;99.90;;;;;;4937350;29;20524;-70
2021/06/07 12:43:18;;;;;;;11.50;10.80;;;24.60;99.90;;;;;;4938010;29;20920;-69
2021/06/07 12:45:47;;;;;;;12.03;11.27;;;24.50;99.90;;;;;;4938291;29;20465;-69
2021/06/07 12:48:19;;;;;;;11.70;10.90;;;24.40;99.90;;;;;;4938122;29;20469;-69
2021/06/07 12:50:49;;;;;;;11.30;10.30;;;24.30;99.90;;;;;;4938181;29;20548;-70
2021/06/07 12:53:18;;;;;;;11.23;10.53;;;24.10;99.90;;;;;;4937441;29;20462;-71
2021/06/07 12:55:46;;;;;;;11.63;10.90;;;24.10;99.90;;;;;;4937764;29;20469;-72
2021/06/07 12:58:17;;;;;;;11.43;10.57;;;24.40;99.90;;;;;;4938748;29;20829;-71
2021/06/07 13:00:48;;;;;;;12.10;11.33;;;24.60;99.90;;;;;;4937377;29;20852;-70
2021/06/07 13:03:24;;;;;;;12.00;11.30;;;24.60;99.90;;;;;;4937542;29;20500;-71
2021/06/07 13:06:06;;;;;;;11.43;10.63;;;24.60;99.90;;;;;;4937218;28;20465;-70
2021/06/07 13:08:33;;;;;;;11.33;10.60;;;24.50;99.90;;;;;;4938005;29;20469;-70
2021/06/07 13:11:02;;;;;;;11.80;11.07;;;24.60;99.90;;;;;;4937098;29;20496;-70
2021/06/07 13:13:31;;;;;;;11.73;10.83;;;24.60;99.90;;;;;;4937723;29;20473;-70
2021/06/07 13:16:07;;;;;;;10.97;10.17;;;24.50;99.90;;;;;;4938157;29;20470;-70
2021/06/07 13:18:36;;;;;;;11.27;10.37;;;24.50;99.90;;;;;;4937666;29;20517;-70
2021/06/07 13:21:07;;;;;;;10.30;9.70;;;24.50;99.90;;;;;;4936986;29;20489;-70
2021/06/07 13:23:39;;;;;;;11.90;11.20;;;24.60;99.90;;;;;;4937749;29;20469;-71
2021/06/07 13:26:20;;;;;;;10.60;10.00;;;24.80;99.90;;;;;;4938252;29;20472;-71
2021/06/07 13:28:47;;;;;;;10.30;9.60;;;24.90;99.90;;;;;;4939345;29;20620;-71
2021/06/07 13:31:14;;;;;;;10.77;10.10;;;25.00;99.90;;;;;;4939820;29;20492;-71
2021/06/07 13:33:41;;;;;;;11.50;10.60;;;25.10;99.90;;;;;;4948102;29;20491;-71
2021/06/07 13:36:09;;;;;;;11.27;10.57;;;25.10;99.90;;;;;;4943799;29;20470;-70
2021/06/07 13:38:38;;;;;;;10.33;9.73;;;24.90;99.90;;;;;;4949190;29;20485;-70
2021/06/07 13:41:12;;;;;;;11.60;10.80;;;24.80;99.90;;;;;;4946199;29;20519;-71
2021/06/07 13:43:39;;;;;;;11.30;10.60;;;24.70;99.90;;;;;;4939526;29;20471;-70
2021/06/07 13:46:06;;;;;;;12.13;11.33;;;24.70;99.90;;;;;;4939602;29;20929;-70
2021/06/07 13:48:37;;;;;;;11.73;10.97;;;24.50;99.90;;;;;;4940749;29;20465;-68
2021/06/07 13:51:05;;;;;;;11.10;10.20;;;24.30;99.90;;;;;;4937168;29;21006;-69
2021/06/07 13:53:35;;;;;;;10.73;10.03;;;24.30;99.90;;;;;;4936349;29;20473;-69
2021/06/07 13:56:03;;;;;;;12.03;11.23;;;24.20;99.90;;;;;;4936656;29;20465;-70
2021/06/07 13:58:41;;;;;;;11.27;10.57;;;24.10;99.90;;;;;;4937478;29;20493;-69
2021/06/07 14:01:09;;;;;;;11.70;10.80;;;24.20;99.90;;;;;;4937329;29;20497;-70
2021/06/07 14:03:37;;;;;;;11.40;10.70;;;24.40;99.90;;;;;;4936592;29;20622;-69
2021/06/07 14:06:06;;;;;;;10.47;9.87;;;24.50;99.90;;;;;;4936842;29;20995;-69
2021/06/07 14:08:35;;;;;;;11.77;11.00;;;24.50;99.90;;;;;;4937444;29;20915;-70
2021/06/07 14:11:06;;;;;;;11.57;10.70;;;24.60;99.90;;;;;;4936902;29;20606;-70
2021/06/07 14:13:32;;;;;;;11.23;10.57;;;24.70;99.90;;;;;;4937211;29;20469;-70
2021/06/07 14:15:59;;;;;;;11.47;10.77;;;24.90;99.90;;;;;;4937477;29;20470;-71
2021/06/07 14:18:25;;;;;;;12.17;11.40;;;25.00;99.90;;;;;;4940292;29;20974;-69
2021/06/07 14:20:52;;;;;;;10.73;10.13;;;24.80;99.90;;;;;;4939251;29;20514;-71
2021/06/07 14:26:09;;;;;;;11.90;11.00;;;24.90;99.90;;;;;;4936914;29;20921;-70
2021/06/07 14:28:37;;;;;;;12.33;11.53;;;24.80;99.90;;;;;;4937032;29;20461;-70
2021/06/07 14:31:04;;;;;;;12.13;11.17;;;24.70;99.90;;;;;;4936545;29;20998;-70
2021/06/07 14:33:31;;;;;;;12.47;11.63;;;24.60;99.90;;;;;;4936013;29;20505;-69
2021/06/07 14:36:00;;;;;;;12.17;11.33;;;24.40;99.90;;;;;;4936356;29;20827;-69
2021/06/07 14:38:27;;;;;;;10.03;9.43;;;24.50;99.90;;;;;;4935749;29;20469;-69
2021/06/07 14:40:56;;;;;;;12.27;11.50;;;24.40;99.90;;;;;;4935141;29;20490;-69
2021/06/07 14:43:24;;;;;;;11.80;11.00;;;24.40;99.90;;;;;;4935807;29;20532;-69
2021/06/07 14:45:50;;;;;;;15.73;14.60;;;24.40;99.90;;;;;;4935964;29;20466;-69
2021/06/07 14:48:17;;;;;;;20.67;18.97;;;24.40;99.90;;;;;;4935569;29;20466;-69
2021/06/07 14:50:43;;;;;;;12.97;12.17;;;24.40;99.90;;;;;;4935766;29;20490;-70
2021/06/07 14:53:09;;;;;;;12.17;11.37;;;24.30;99.90;;;;;;4935243;29;20481;-70
2021/06/07 14:55:35;;;;;;;12.20;11.30;;;24.30;99.90;;;;;;4935429;29;20890;-70
2021/06/07 14:58:02;;;;;;;12.43;11.53;;;24.10;99.90;;;;;;4935697;29;20473;-70
2021/06/07 15:00:29;;;;;;;12.27;11.33;;;24.10;99.90;;;;;;4935673;29;20533;-69
2021/06/07 15:02:55;;;;;;;11.90;11.10;;;24.10;99.90;;;;;;4935704;29;20837;-69
2021/06/07 15:05:22;;;;;;;12.20;11.20;;;24.20;99.90;;;;;;4935647;29;20962;-70
2021/06/07 15:07:48;;;;;;;11.80;10.80;;;24.30;99.90;;;;;;4934835;28;20982;-69
2021/06/07 15:10:15;;;;;;;12.20;11.40;;;24.30;99.90;;;;;;4935355;29;20458;-69
2021/06/07 15:12:41;;;;;;;12.10;11.20;;;24.30;99.90;;;;;;4934730;29;20470;-70
2021/06/07 15:15:08;;;;;;;12.57;11.67;;;24.30;99.90;;;;;;4936028;29;20953;-70
2021/06/07 15:17:36;;;;;;;12.47;11.50;;;24.40;99.90;;;;;;4935555;29;20477;-70
2021/06/07 15:20:03;;;;;;;13.20;12.20;;;24.40;99.90;;;;;;4936701;29;20492;-69
2021/06/07 15:22:29;;;;;;;12.73;11.90;;;24.40;99.90;;;;;;4934722;29;20493;-70
2021/06/07 15:24:55;;;;;;;12.20;11.33;;;24.40;99.90;;;;;;4935874;29;20561;-70
2021/06/07 15:27:21;;;;;;;13.73;12.73;;;24.40;99.90;;;;;;4934768;29;20465;-70
2021/06/07 15:29:47;;;;;;;14.37;13.07;;;24.50;99.90;;;;;;4935391;29;20477;-70
2021/06/07 15:32:14;;;;;;;15.97;14.77;;;24.50;99.90;;;;;;4935115;29;20489;-70
2021/06/07 15:34:41;;;;;;;15.20;14.00;;;24.30;99.90;;;;;;4935618;29;20478;-70
2021/06/07 15:37:08;;;;;;;13.87;12.77;;;24.30;99.90;;;;;;4935561;29;20552;-70
2021/06/07 15:39:34;;;;;;;13.83;12.70;;;24.20;99.90;;;;;;4934515;29;20493;-70
2021/06/07 15:42:01;;;;;;;14.00;12.90;;;24.10;99.90;;;;;;4934347;29;20572;-70
2021/06/07 15:44:27;;;;;;;13.70;12.50;;;24.10;99.90;;;;;;4937727;29;20993;-70
2021/06/07 15:46:54;;;;;;;12.40;11.50;;;24.10;99.90;;;;;;4939445;29;20520;-70
2021/06/07 15:49:20;;;;;;;14.63;13.50;;;24.10;99.90;;;;;;4939117;29;20473;-70
2021/06/07 15:51:49;;;;;;;13.67;12.60;;;24.10;99.90;;;;;;4939202;29;20493;-70
2021/06/07 15:54:15;;;;;;;14.33;13.23;;;24.10;99.90;;;;;;4938754;29;20469;-70
2021/06/07 15:56:41;;;;;;;14.73;13.73;;;24.00;99.90;;;;;;4938191;29;20988;-69
2021/06/07 15:59:08;;;;;;;14.30;13.13;;;24.00;99.90;;;;;;4938573;29;20497;-70
2021/06/07 16:01:34;;;;;;;13.93;12.87;;;24.00;99.90;;;;;;4938973;29;20493;-70
2021/06/07 16:04:02;;;;;;;13.93;12.77;;;24.10;99.90;;;;;;4938605;29;20512;-70
2021/06/07 16:06:28;;;;;;;14.70;13.50;;;24.10;99.90;;;;;;4939138;28;20509;-70
2021/06/07 16:08:56;;;;;;;14.20;13.10;;;24.20;99.90;;;;;;4937952;29;20465;-70
2021/06/07 16:11:22;;;;;;;13.13;12.13;;;24.20;99.90;;;;;;4937979;29;20496;-70
2021/06/07 16:13:48;;;;;;;14.40;13.23;;;24.20;99.90;;;;;;4938114;29;20472;-70
2021/06/07 16:16:21;;;;;;;13.40;12.40;;;24.10;99.90;;;;;;4938529;29;20462;-70
2021/06/07 16:18:51;;;;;;;13.07;12.07;;;24.10;99.90;;;;;;4938358;29;20492;-70
2021/06/07 16:21:19;;;;;;;14.37;13.27;;;24.20;99.90;;;;;;4938062;29;21020;-70
2021/06/07 16:23:47;;;;;;;12.83;11.83;;;24.10;99.90;;;;;;4937474;29;20834;-71
2021/06/07 16:26:16;;;;;;;13.47;12.47;;;24.10;99.90;;;;;;4937125;29;20466;-70
2021/06/07 16:28:43;;;;;;;14.90;13.53;;;24.00;99.90;;;;;;4937598;29;21033;-71
2021/06/07 16:31:09;;;;;;;14.83;13.67;;;23.90;99.90;;;;;;4937694;29;20489;-71
2021/06/07 16:33:35;;;;;;;15.10;13.90;;;23.80;99.90;;;;;;4937792;29;20473;-71
2021/06/07 16:36:03;;;;;;;13.50;12.47;;;23.90;99.90;;;;;;4937775;29;20500;-71
2021/06/07 16:38:29;;;;;;;14.30;13.00;;;24.10;99.90;;;;;;4937021;29;20465;-71
2021/06/07 16:40:55;;;;;;;14.03;12.90;;;24.30;99.90;;;;;;4937170;29;20510;-70